createdAt,value
2023-10-19T00:05:33.001Z,75.23
2023-10-19T00:11:25.887Z,75.40
2023-10-19T00:17:27.768Z,75.70
2023-10-19T00:22:58.582Z,75.81
2023-10-19T00:29:00.607Z,75.78
2023-10-19T00:35:22.489Z,75.71
2023-10-19T00:41:53.249Z,75.94
2023-10-19T00:48:15.199Z,76.03
2023-10-19T00:54:48.407Z,76.35
2023-10-19T01:01:10.397Z,76.46
2023-10-19T01:07:28.543Z,76.69
2023-10-19T01:13:50.757Z,76.71
2023-10-19T01:20:12.531Z,76.95
2023-10-19T01:25:57.092Z,76.88
2023-10-19T01:32:19.098Z,76.95
2023-10-19T01:38:40.968Z,76.74
2023-10-19T01:45:02.722Z,77.07
2023-10-19T01:50:24.841Z,77.11
2023-10-19T01:55:28.493Z,77.15
2023-10-19T02:00:31.346Z,77.02
2023-10-19T02:06:49.820Z,77.39
2023-10-19T02:13:14.701Z,77.87
2023-10-19T02:19:36.598Z,78.35
2023-10-19T02:25:58.432Z,78.15
2023-10-19T02:32:20.285Z,77.73
2023-10-19T02:38:42.045Z,77.78
2023-10-19T02:44:19.575Z,78.05
2023-10-19T02:50:21.519Z,78.33
2023-10-19T02:55:43.575Z,78.73
2023-10-19T03:00:47.369Z,78.51
2023-10-19T03:05:49.436Z,78.55
2023-10-19T03:11:05.256Z,79.00
2023-10-19T03:16:10.386Z,78.82
2023-10-19T03:22:12.212Z,78.86
2023-10-19T03:28:34.219Z,79.08
2023-10-19T03:34:56.097Z,79.29
2023-10-19T03:40:27.022Z,79.31
2023-10-19T03:45:34.914Z,79.52
2023-10-19T03:50:38.305Z,79.64
2023-10-19T03:55:40.434Z,79.61
2023-10-19T04:00:43.070Z,79.57
2023-10-19T04:06:45.070Z,79.84
2023-10-19T04:12:07.745Z,79.83
2023-10-19T04:17:13.542Z,79.78
2023-10-19T04:22:23.972Z,79.59
2023-10-19T04:27:28.485Z,79.66
2023-10-19T04:32:31.907Z,79.57
2023-10-19T04:37:34.116Z,79.46
2023-10-19T04:43:35.986Z,79.44
2023-10-19T04:49:57.864Z,79.10
2023-10-19T04:56:19.631Z,79.14
2023-10-19T05:02:41.650Z,78.89
2023-10-19T05:09:03.754Z,78.87
2023-10-19T05:14:25.876Z,78.83
2023-10-19T05:19:28.163Z,78.72
2023-10-19T05:24:31.474Z,78.81
2023-10-19T05:30:33.529Z,78.61
2023-10-19T05:35:56.082Z,78.39
2023-10-19T05:41:57.990Z,78.28
2023-10-19T05:48:19.754Z,78.22
2023-10-19T05:54:41.573Z,78.11
2023-10-19T06:01:03.418Z,78.03
2023-10-19T06:06:26.126Z,77.86
2023-10-19T06:11:33.681Z,77.36
2023-10-19T06:16:36.065Z,77.04
2023-10-19T06:21:38.334Z,76.81
2023-10-19T06:26:40.385Z,76.53
2023-10-19T06:31:42.546Z,76.26
2023-10-19T06:37:44.567Z,76.03
2023-10-19T06:44:06.569Z,75.80
2023-10-19T06:50:28.338Z,75.87
2023-10-19T06:56:50.066Z,75.53
2023-10-19T07:02:14.473Z,75.01
2023-10-19T07:08:16.386Z,74.83
2023-10-19T07:14:38.221Z,74.64
2023-10-19T07:21:00.019Z,74.42
2023-10-19T07:26:24.121Z,74.26
2023-10-19T07:31:28.802Z,73.96
2023-10-19T07:36:32.500Z,73.54
2023-10-19T07:41:37.284Z,73.40
2023-10-19T07:46:39.482Z,73.44
2023-10-19T07:52:47.620Z,72.98
2023-10-19T07:58:09.957Z,72.18
2023-10-19T08:03:14.978Z,71.48
2023-10-19T08:08:17.406Z,70.64
2023-10-19T08:13:19.548Z,70.81
2023-10-19T08:18:22.321Z,70.92
2023-10-19T08:23:28.891Z,70.00
2023-10-19T08:28:31.587Z,70.02
2023-10-19T08:33:35.442Z,69.98
2023-10-19T08:38:37.791Z,69.70
2023-10-19T08:43:40.900Z,69.31
2023-10-19T08:48:43.548Z,69.21
2023-10-19T08:53:47.904Z,69.91
2023-10-19T08:58:50.323Z,69.95
2023-10-19T09:03:53.053Z,70.03
2023-10-19T09:08:55.465Z,70.18
2023-10-19T09:13:58.773Z,70.19
2023-10-19T09:19:00.910Z,70.05
2023-10-19T09:24:03.100Z,69.62
2023-10-19T09:30:04.968Z,69.83
2023-10-19T09:36:26.782Z,69.93
2023-10-19T09:42:48.657Z,68.89
2023-10-19T09:49:10.458Z,68.81
2023-10-19T09:54:45.807Z,69.85
2023-10-19T09:59:52.894Z,70.24
2023-10-19T10:04:55.174Z,70.27
2023-10-19T10:09:57.508Z,70.56
2023-10-19T10:14:59.848Z,71.02
2023-10-19T10:20:20.217Z,71.61
2023-10-19T10:25:29.304Z,71.79
2023-10-19T10:30:32.767Z,72.17
2023-10-19T10:35:38.189Z,72.22
2023-10-19T10:41:43.217Z,72.42
2023-10-19T10:48:05.112Z,72.73
2023-10-19T10:54:29.713Z,72.50
2023-10-19T11:01:10.277Z,72.36
2023-10-19T11:06:56.690Z,72.62
2023-10-19T11:11:58.850Z,73.85
2023-10-19T11:17:16.482Z,74.75
2023-10-19T11:22:18.596Z,75.44
2023-10-19T11:27:28.018Z,76.71
2023-10-19T11:32:39.570Z,77.10
2023-10-19T11:37:56.710Z,77.58
2023-10-19T11:42:59.976Z,78.52
2023-10-19T11:48:02.907Z,78.82
2023-10-19T11:53:07.048Z,78.31
2023-10-19T11:59:09.000Z,78.29
2023-10-19T12:04:31.669Z,79.23
2023-10-19T12:09:34.239Z,79.75
2023-10-19T12:14:40.002Z,80.23
2023-10-19T12:19:42.274Z,80.57
2023-10-19T12:24:45.738Z,80.63
2023-10-19T12:29:48.034Z,80.40
2023-10-19T12:34:59.111Z,80.74
2023-10-19T12:40:01.335Z,80.65
2023-10-19T12:45:04.192Z,81.26
2023-10-19T12:50:08.251Z,81.43
2023-10-19T12:55:10.817Z,81.20
2023-10-19T13:00:27.263Z,81.04
2023-10-19T13:05:33.061Z,80.99
2023-10-19T13:10:38.093Z,80.59
2023-10-19T13:15:41.699Z,80.66
2023-10-19T13:20:45.345Z,81.47
2023-10-19T13:25:51.614Z,82.13
2023-10-19T13:30:55.204Z,82.53
2023-10-19T13:35:57.279Z,83.13
2023-10-19T13:40:59.443Z,83.70
2023-10-19T13:46:02.945Z,84.34
2023-10-19T13:51:14.745Z,85.00
2023-10-19T13:56:17.776Z,85.31
2023-10-19T14:01:20.236Z,85.25
2023-10-19T14:06:23.730Z,85.32
2023-10-19T14:11:26.113Z,85.15
2023-10-19T14:16:28.620Z,85.59
2023-10-19T14:21:31.245Z,85.42
2023-10-19T14:26:33.352Z,85.92
2023-10-19T14:31:35.534Z,85.77
2023-10-19T14:36:42.945Z,85.61
2023-10-19T14:42:22.952Z,85.72
2023-10-19T14:47:27.950Z,85.54
2023-10-19T14:52:30.163Z,85.88
2023-10-19T14:57:34.612Z,85.68
2023-10-19T15:03:36.656Z,85.74
2023-10-19T15:09:58.628Z,85.99
2023-10-19T15:15:20.835Z,86.01
2023-10-19T15:20:28.549Z,86.29
2023-10-19T15:25:30.866Z,86.60
2023-10-19T15:30:33.114Z,86.71
2023-10-19T15:35:38.830Z,86.94
2023-10-19T15:40:41.676Z,86.81
2023-10-19T15:45:47.138Z,86.82
2023-10-19T15:50:49.516Z,86.91
2023-10-19T15:55:52.545Z,87.01
2023-10-19T16:01:02.636Z,87.25
2023-10-19T16:06:08.150Z,87.33
2023-10-19T16:11:10.400Z,87.26
2023-10-19T16:16:13.798Z,87.03
2023-10-19T16:21:15.872Z,87.06
2023-10-19T16:26:18.144Z,87.33
2023-10-19T16:31:26.912Z,87.24
2023-10-19T16:36:31.231Z,87.12
2023-10-19T16:41:33.494Z,87.24
2023-10-19T16:46:39.548Z,87.38
2023-10-19T16:51:42.036Z,87.26
2023-10-19T16:57:06.854Z,87.33
2023-10-19T17:02:11.419Z,87.71
2023-10-19T17:07:13.642Z,88.12
2023-10-19T17:12:15.790Z,87.87
2023-10-19T17:17:21.111Z,87.79
2023-10-19T17:22:23.521Z,87.83
2023-10-19T17:27:25.615Z,88.15
2023-10-19T17:32:29.042Z,88.09
2023-10-19T17:37:33.351Z,88.32
2023-10-19T17:42:47.570Z,88.25
2023-10-19T17:47:53.632Z,88.42
2023-10-19T17:52:55.975Z,88.52
2023-10-19T17:57:59.506Z,88.70
2023-10-19T18:03:13.177Z,88.52
2023-10-19T18:08:16.268Z,88.59
2023-10-19T18:13:18.870Z,88.84
2023-10-19T18:18:22.632Z,89.04
2023-10-19T18:23:25.675Z,88.46
2023-10-19T18:28:27.964Z,88.73
2023-10-19T18:33:35.062Z,88.86
2023-10-19T18:38:38.057Z,88.84
2023-10-19T18:43:40.312Z,89.17
2023-10-19T18:48:42.481Z,89.08
2023-10-19T18:53:45.560Z,89.53
2023-10-19T18:58:48.204Z,89.23
2023-10-19T19:03:51.793Z,88.97
2023-10-19T19:08:54.050Z,88.79
2023-10-19T19:13:56.220Z,89.18
2023-10-19T19:18:58.419Z,89.18
2023-10-19T19:24:00.556Z,88.84
2023-10-19T19:29:02.998Z,89.58
2023-10-19T19:34:05.099Z,89.93
2023-10-19T19:39:08.904Z,89.41
2023-10-19T19:44:11.292Z,89.55
2023-10-19T19:50:13.315Z,89.32
2023-10-19T19:56:35.165Z,89.44
2023-10-19T20:02:57.037Z,89.93
2023-10-19T20:09:28.900Z,90.67
2023-10-19T20:15:00.899Z,91.26
2023-10-19T20:21:02.726Z,91.18
2023-10-19T20:27:24.568Z,91.29
2023-10-19T20:33:46.276Z,91.32
2023-10-19T20:39:31.569Z,91.05
2023-10-19T20:44:43.121Z,90.61
2023-10-19T20:49:46.429Z,90.77
2023-10-19T20:54:48.669Z,90.34
2023-10-19T20:59:50.977Z,90.42
2023-10-19T21:05:55.288Z,90.34
2023-10-19T21:11:04.290Z,90.47
2023-10-19T21:16:09.440Z,90.72
2023-10-19T21:21:16.150Z,90.91
2023-10-19T21:26:18.427Z,91.11
2023-10-19T21:31:20.936Z,91.09
2023-10-19T21:36:23.208Z,90.62
2023-10-19T21:41:27.849Z,90.43
2023-10-19T21:46:31.785Z,90.39
2023-10-19T21:51:34.053Z,90.56
2023-10-19T21:56:36.257Z,90.87
2023-10-19T22:01:40.871Z,90.57
2023-10-19T22:07:42.870Z,90.55
2023-10-19T22:14:04.643Z,90.43
2023-10-19T22:20:26.537Z,90.24
2023-10-19T22:25:48.699Z,90.23
2023-10-19T22:31:50.516Z,90.61
2023-10-19T22:38:12.355Z,90.25
2023-10-19T22:44:34.388Z,90.03
2023-10-19T22:50:56.296Z,90.02
2023-10-19T22:56:18.364Z,90.07
2023-10-19T23:02:20.342Z,90.20
2023-10-19T23:08:42.212Z,90.23
2023-10-19T23:15:04.109Z,90.45
2023-10-19T23:21:25.917Z,90.56
2023-10-19T23:26:48.286Z,90.89
2023-10-19T23:31:53.152Z,90.79
2023-10-19T23:36:55.257Z,90.28
2023-10-19T23:41:57.307Z,90.28
2023-10-19T23:47:00.054Z,90.22
2023-10-19T23:52:02.341Z,90.47
2023-10-19T23:58:12.068Z,90.47
